Time;durP1;ratioP1;P1;durP2;ratioP2;P2;SDS_P1;SDS_P2;PMS_P1;PMS_P2;Temp;Humidity;BMP_temperature;BMP_pressure;BME280_temperature;BME280_humidity;BME280_pressure;Samples;Min_cycle;Max_cycle;Signal;HPM_P1;HPM_P2
2022/06/17 00:00:43;;;;;;;4.80;2.53;;;;;;;;;;5053777;28;20061;-36
2022/06/17 00:03:08;;;;;;;5.05;2.33;;;;;;;;;;5053521;28;20056;-36
2022/06/17 00:05:34;;;;;;;2.90;2.40;;;;;;;;;;5053453;28;20427;-36
2022/06/17 00:07:59;;;;;;;4.57;2.60;;;;;;;;;;5053647;28;20074;-36
2022/06/17 00:10:26;;;;;;;3.28;2.53;;;;;;;;;;5053726;28;20024;-36
2022/06/17 00:12:51;;;;;;;7.63;2.78;;;;;;;;;;5052208;28;20023;-36
2022/06/17 00:15:17;;;;;;;3.20;2.50;;;;;;;;;;5052122;28;20021;-36
2022/06/17 00:17:46;;;;;;;2.53;2.25;;;;;;;;;;5053574;28;20025;-38
2022/06/17 00:20:14;;;;;;;5.43;2.53;;;;;;;;;;5053105;28;20043;-35
2022/06/17 00:22:40;;;;;;;4.22;2.63;;;;;;;;;;5053112;28;20357;-36
2022/06/17 00:25:13;;;;;;;8.85;3.78;;;;;;;;;;5052834;28;20425;-39
2022/06/17 00:27:39;;;;;;;3.80;2.65;;;;;;;;;;5053850;28;20040;-36
2022/06/17 00:30:13;;;;;;;4.38;3.00;;;;;;;;;;5052094;28;20021;-36
2022/06/17 00:32:39;;;;;;;4.95;2.20;;;;;;;;;;5052002;28;20017;-36
2022/06/17 00:35:04;;;;;;;3.60;3.30;;;;;;;;;;5053342;28;20071;-36
2022/06/17 00:37:30;;;;;;;3.90;2.80;;;;;;;;;;5054767;28;20023;-38
2022/06/17 00:39:55;;;;;;;5.10;2.88;;;;;;;;;;5071987;28;20375;-37
2022/06/17 00:42:21;;;;;;;5.80;2.63;;;;;;;;;;5073323;28;20102;-36
2022/06/17 00:44:52;;;;;;;3.58;2.83;;;;;;;;;;5073269;28;20382;-36
2022/06/17 00:47:44;;;;;;;3.05;2.60;;;;;;;;;;5072790;28;20042;-37
2022/06/17 00:50:48;;;;;;;2.60;2.40;;;;;;;;;;5069701;28;20068;-36
2022/06/17 00:53:19;;;;;;;3.20;2.90;;;;;;;;;;5070124;28;20025;-36
2022/06/17 00:55:47;;;;;;;4.22;3.00;;;;;;;;;;5053371;28;20477;-36
2022/06/17 00:58:14;;;;;;;3.50;2.80;;;;;;;;;;5071389;28;20032;-36
2022/06/17 01:00:40;;;;;;;5.90;3.05;;;;;;;;;;5070961;28;20024;-38
2022/06/17 01:03:07;;;;;;;3.30;2.53;;;;;;;;;;5072573;28;20028;-37
2022/06/17 01:05:52;;;;;;;2.80;2.45;;;;;;;;;;5072458;28;20055;-36
2022/06/17 01:11:23;;;;;;;5.85;3.15;;;;;;;;;;5072043;28;20047;-36
2022/06/17 01:13:49;;;;;;;4.18;2.70;;;;;;;;;;5072319;28;20009;-36
2022/06/17 01:16:15;;;;;;;5.13;4.43;;;;;;;;;;5072557;28;20017;-40
2022/06/17 01:18:43;;;;;;;7.22;3.33;;;;;;;;;;5072432;28;20450;-36
2022/06/17 01:21:27;;;;;;;3.38;3.00;;;;;;;;;;5072301;28;20024;-36
2022/06/17 01:23:53;;;;;;;4.25;2.80;;;;;;;;;;5070749;28;20025;-35
2022/06/17 01:26:18;;;;;;;7.65;2.83;;;;;;;;;;5071890;28;20434;-36
2022/06/17 01:28:44;;;;;;;5.80;2.78;;;;;;;;;;5072213;28;20103;-36
2022/06/17 01:31:09;;;;;;;4.68;2.92;;;;;;;;;;5071616;28;20522;-36
2022/06/17 01:33:36;;;;;;;4.28;2.60;;;;;;;;;;5072416;28;20087;-36
2022/06/17 01:36:09;;;;;;;6.25;2.90;;;;;;;;;;5070612;28;20025;-36
2022/06/17 01:38:36;;;;;;;4.40;2.83;;;;;;;;;;5059290;28;20021;-36
2022/06/17 01:41:02;;;;;;;13.15;5.43;;;;;;;;;;5050815;28;20032;-36
2022/06/17 01:43:48;;;;;;;4.93;2.92;;;;;;;;;;5052089;28;20025;-36
2022/06/17 01:46:18;;;;;;;3.85;2.67;;;;;;;;;;5050801;28;20051;-36
2022/06/17 01:48:52;;;;;;;3.58;2.70;;;;;;;;;;5050316;28;20229;-37
2022/06/17 01:51:18;;;;;;;3.53;3.13;;;;;;;;;;5052037;28;20025;-36
2022/06/17 01:53:47;;;;;;;7.43;3.28;;;;;;;;;;5051794;28;20511;-36
2022/06/17 01:56:14;;;;;;;5.50;3.17;;;;;;;;;;5050593;28;20376;-35
2022/06/17 01:58:49;;;;;;;5.28;3.08;;;;;;;;;;5050514;28;20385;-36
2022/06/17 02:01:15;;;;;;;3.88;3.05;;;;;;;;;;5049433;28;20559;-36
2022/06/17 02:03:54;;;;;;;6.55;3.20;;;;;;;;;;5051765;28;20040;-36
2022/06/17 02:06:34;;;;;;;3.30;2.88;;;;;;;;;;5049754;28;20500;-36
2022/06/17 02:09:00;;;;;;;9.45;3.63;;;;;;;;;;5051728;28;20029;-39
2022/06/17 02:11:26;;;;;;;7.28;3.70;;;;;;;;;;5050104;28;20033;-36
2022/06/17 02:13:51;;;;;;;4.57;3.50;;;;;;;;;;5051223;28;20112;-35
2022/06/17 02:16:18;;;;;;;6.13;3.70;;;;;;;;;;5051626;28;20052;-37
2022/06/17 02:18:43;;;;;;;7.38;4.00;;;;;;;;;;5051608;28;20025;-36
2022/06/17 02:21:11;;;;;;;6.22;4.07;;;;;;;;;;5050356;28;20691;-36
2022/06/17 02:23:37;;;;;;;6.32;3.88;;;;;;;;;;5050268;28;20044;-38
2022/06/17 02:26:05;;;;;;;7.35;4.30;;;;;;;;;;5050998;28;20064;-36
2022/06/17 02:28:31;;;;;;;5.07;4.10;;;;;;;;;;5049728;28;20025;-36
2022/06/17 02:30:57;;;;;;;6.85;4.32;;;;;;;;;;5051606;28;20029;-36
2022/06/17 02:33:23;;;;;;;5.47;4.55;;;;;;;;;;5051436;28;20502;-36
2022/06/17 02:35:55;;;;;;;6.55;4.35;;;;;;;;;;5050262;28;20013;-36
2022/06/17 02:38:22;;;;;;;6.32;3.85;;;;;;;;;;5061610;28;20020;-38
2022/06/17 02:40:50;;;;;;;6.72;4.78;;;;;;;;;;5071032;28;20021;-37
2022/06/17 02:43:18;;;;;;;7.40;5.00;;;;;;;;;;5055453;28;20039;-36
2022/06/17 02:45:46;;;;;;;5.75;4.18;;;;;;;;;;5075199;28;20165;-38
2022/06/17 02:48:25;;;;;;;5.72;4.65;;;;;;;;;;5074996;28;20012;-35
2022/06/17 02:50:51;;;;;;;8.68;4.93;;;;;;;;;;5074678;28;20051;-36
2022/06/17 02:53:19;;;;;;;5.45;4.53;;;;;;;;;;5073384;28;20036;-37
2022/06/17 02:55:44;;;;;;;8.02;4.30;;;;;;;;;;5073467;28;20020;-36
2022/06/17 02:58:13;;;;;;;5.50;4.18;;;;;;;;;;5073848;28;20123;-35
2022/06/17 03:00:38;;;;;;;7.90;4.73;;;;;;;;;;5075156;28;20451;-36
2022/06/17 03:03:05;;;;;;;5.72;4.20;;;;;;;;;;5073311;28;20027;-36
2022/06/17 03:05:31;;;;;;;10.68;5.47;;;;;;;;;;5074513;28;20626;-35
2022/06/17 03:07:58;;;;;;;7.28;4.32;;;;;;;;;;5074445;28;20104;-36
2022/06/17 03:10:31;;;;;;;9.27;4.20;;;;;;;;;;5073504;28;20151;-36
2022/06/17 03:13:00;;;;;;;5.78;4.55;;;;;;;;;;5074333;28;20037;-36
2022/06/17 03:15:25;;;;;;;5.88;4.57;;;;;;;;;;5073396;28;20486;-36
2022/06/17 03:17:51;;;;;;;6.05;4.07;;;;;;;;;;5074611;28;20025;-36
2022/06/17 03:20:23;;;;;;;8.18;4.60;;;;;;;;;;5073106;28;20020;-36
2022/06/17 03:22:51;;;;;;;5.32;3.88;;;;;;;;;;5074382;28;20024;-36
2022/06/17 03:25:16;;;;;;;7.43;4.50;;;;;;;;;;5074203;28;20025;-36
2022/06/17 03:27:49;;;;;;;10.02;4.80;;;;;;;;;;5074385;28;20380;-36
2022/06/17 03:30:18;;;;;;;7.75;4.18;;;;;;;;;;5074612;28;20455;-35
2022/06/17 03:32:44;;;;;;;5.55;4.53;;;;;;;;;;5074394;28;20021;-36
2022/06/17 03:35:21;;;;;;;4.68;3.80;;;;;;;;;;5073937;28;20379;-37
2022/06/17 03:38:02;;;;;;;5.88;4.40;;;;;;;;;;5068098;28;20013;-36
2022/06/17 03:40:30;;;;;;;9.18;4.03;;;;;;;;;;5054219;28;20082;-36
2022/06/17 03:43:02;;;;;;;6.13;4.10;;;;;;;;;;5054117;28;20032;-37
2022/06/17 03:45:30;;;;;;;5.28;3.78;;;;;;;;;;5054268;28;20063;-39
2022/06/17 03:48:18;;;;;;;6.00;4.30;;;;;;;;;;5053921;28;20100;-38
2022/06/17 03:50:47;;;;;;;5.80;3.83;;;;;;;;;;5052392;28;20127;-36
2022/06/17 03:53:25;;;;;;;9.90;3.70;;;;;;;;;;5052564;28;20460;-36
2022/06/17 03:55:51;;;;;;;9.02;4.25;;;;;;;;;;5053792;28;20032;-37
2022/06/17 03:58:18;;;;;;;7.50;3.70;;;;;;;;;;5053619;28;20017;-38
2022/06/17 04:00:43;;;;;;;4.57;3.50;;;;;;;;;;5053962;28;20066;-42
2022/06/17 04:03:14;;;;;;;5.53;3.42;;;;;;;;;;5053600;28;20645;-36
2022/06/17 04:05:40;;;;;;;7.60;3.53;;;;;;;;;;5053359;28;20118;-37
2022/06/17 04:08:05;;;;;;;7.28;2.83;;;;;;;;;;5035835;28;20411;-36
2022/06/17 04:10:31;;;;;;;5.57;3.08;;;;;;;;;;5053516;28;20020;-36
2022/06/17 04:12:56;;;;;;;5.18;2.88;;;;;;;;;;5052952;28;20036;-37
2022/06/17 04:15:42;;;;;;;7.05;2.70;;;;;;;;;;5053352;28;20099;-36
2022/06/17 04:18:08;;;;;;;9.90;3.03;;;;;;;;;;5053510;28;20021;-38
2022/06/17 04:20:51;;;;;;;6.30;2.63;;;;;;;;;;5052019;28;20595;-36
2022/06/17 04:23:18;;;;;;;7.75;2.42;;;;;;;;;;5053038;28;20409;-36
2022/06/17 04:25:49;;;;;;;3.72;2.20;;;;;;;;;;5053283;28;20468;-36
2022/06/17 04:28:18;;;;;;;5.05;2.78;;;;;;;;;;5053256;28;20032;-38
2022/06/17 04:30:48;;;;;;;4.53;2.20;;;;;;;;;;5053320;28;20021;-36
2022/06/17 04:33:23;;;;;;;5.55;2.25;;;;;;;;;;5051869;28;20032;-36
2022/06/17 04:35:53;;;;;;;5.65;2.22;;;;;;;;;;5052388;28;20021;-37
2022/06/17 04:38:18;;;;;;;3.58;2.30;;;;;;;;;;5062182;28;20039;-37
2022/06/17 04:40:47;;;;;;;4.93;2.42;;;;;;;;;;5072953;28;20021;-37
2022/06/17 04:43:33;;;;;;;6.55;2.30;;;;;;;;;;5073010;28;20019;-36
2022/06/17 04:46:05;;;;;;;6.03;2.20;;;;;;;;;;5071563;28;20477;-36
2022/06/17 04:48:31;;;;;;;2.80;1.80;;;;;;;;;;5072469;28;20021;-37
2022/06/17 04:50:56;;;;;;;3.97;2.53;;;;;;;;;;5072712;28;20096;-37
2022/06/17 04:53:22;;;;;;;5.70;2.35;;;;;;;;;;5072834;28;20060;-36
2022/06/17 04:55:47;;;;;;;5.88;2.15;;;;;;;;;;5072617;28;20478;-36
2022/06/17 04:58:14;;;;;;;4.82;1.77;;;;;;;;;;5072406;28;20024;-36
2022/06/17 05:00:42;;;;;;;5.63;2.17;;;;;;;;;;5072513;28;20023;-38
2022/06/17 05:03:09;;;;;;;4.72;2.28;;;;;;;;;;5072153;28;20519;-36
2022/06/17 05:05:35;;;;;;;3.63;1.73;;;;;;;;;;5071949;28;20098;-37
2022/06/17 05:08:04;;;;;;;3.30;2.15;;;;;;;;;;5072132;28;20017;-36
2022/06/17 05:10:37;;;;;;;3.38;1.95;;;;;;;;;;5072853;28;20087;-36
2022/06/17 05:13:07;;;;;;;7.70;2.17;;;;;;;;;;5071828;28;20036;-36
2022/06/17 05:15:33;;;;;;;6.78;1.60;;;;;;;;;;5072224;28;20059;-36
2022/06/17 05:17:58;;;;;;;4.25;1.70;;;;;;;;;;5072426;28;20025;-37
2022/06/17 05:20:24;;;;;;;7.90;2.00;;;;;;;;;;5072334;28;20387;-36
2022/06/17 05:22:50;;;;;;;8.45;2.17;;;;;;;;;;5072262;28;20016;-36
2022/06/17 05:25:20;;;;;;;3.88;1.75;;;;;;;;;;5071884;28;20103;-36
2022/06/17 05:27:46;;;;;;;5.18;1.80;;;;;;;;;;5072026;28;20036;-37
2022/06/17 05:30:11;;;;;;;4.85;1.83;;;;;;;;;;5064872;28;20033;-36
2022/06/17 05:32:38;;;;;;;4.90;2.03;;;;;;;;;;5061728;28;20024;-38
2022/06/17 05:35:04;;;;;;;4.30;1.80;;;;;;;;;;5060389;28;20017;-36
2022/06/17 05:37:29;;;;;;;8.27;2.10;;;;;;;;;;5061739;28;20078;-37
2022/06/17 05:39:55;;;;;;;4.88;2.08;;;;;;;;;;5054375;28;20104;-36
2022/06/17 05:42:20;;;;;;;4.78;1.85;;;;;;;;;;5068018;28;20040;-37
2022/06/17 05:44:46;;;;;;;7.57;1.73;;;;;;;;;;5071513;28;20412;-37
2022/06/17 05:47:11;;;;;;;2.22;1.50;;;;;;;;;;5071395;28;20289;-36
2022/06/17 05:49:38;;;;;;;2.05;1.30;;;;;;;;;;5071060;28;20028;-36
2022/06/17 05:52:04;;;;;;;2.35;1.33;;;;;;;;;;5071681;28;20028;-37
2022/06/17 05:54:29;;;;;;;3.40;1.52;;;;;;;;;;5060050;28;20024;-37
2022/06/17 05:56:55;;;;;;;1.63;1.37;;;;;;;;;;5056082;28;20412;-40
2022/06/17 05:59:20;;;;;;;6.30;1.60;;;;;;;;;;5063861;28;20257;-38
2022/06/17 06:01:46;;;;;;;2.10;1.55;;;;;;;;;;5055931;28;20054;-36
2022/06/17 06:04:11;;;;;;;2.83;1.40;;;;;;;;;;5054913;28;20048;-37
2022/06/17 06:06:37;;;;;;;4.03;1.50;;;;;;;;;;5059675;28;20047;-36
2022/06/17 06:09:02;;;;;;;2.95;1.35;;;;;;;;;;5060907;28;20115;-39
2022/06/17 06:11:28;;;;;;;2.97;1.20;;;;;;;;;;5053062;28;20384;-37
2022/06/17 06:13:53;;;;;;;5.10;1.60;;;;;;;;;;5050010;28;20074;-37
2022/06/17 06:16:18;;;;;;;2.78;1.50;;;;;;;;;;5052209;28;20021;-38
2022/06/17 06:18:49;;;;;;;10.00;2.20;;;;;;;;;;5059488;28;20437;-38
2022/06/17 06:21:15;;;;;;;4.55;1.75;;;;;;;;;;5060712;28;20029;-38
2022/06/17 06:23:44;;;;;;;2.67;1.20;;;;;;;;;;5050694;28;20451;-38
2022/06/17 06:26:09;;;;;;;;;;;;;;;;;;5052357;28;20052;-40
2022/06/17 06:28:34;;;;;;;6.63;1.50;;;;;;;;;;5053933;28;20367;-38
2022/06/17 06:31:03;;;;;;;3.53;1.80;;;;;;;;;;5063346;28;20840;-38
2022/06/17 06:33:28;;;;;;;3.40;1.70;;;;;;;;;;5059798;28;20026;-39
2022/06/17 06:35:53;;;;;;;3.33;1.38;;;;;;;;;;5060721;28;20035;-39
2022/06/17 06:38:19;;;;;;;4.03;1.65;;;;;;;;;;5054367;28;20029;-39
2022/06/17 06:40:44;;;;;;;2.33;1.50;;;;;;;;;;5064514;28;20036;-38
2022/06/17 06:43:10;;;;;;;2.42;1.38;;;;;;;;;;5059301;28;20067;-38
2022/06/17 06:45:36;;;;;;;3.08;1.42;;;;;;;;;;5058972;28;20025;-39
2022/06/17 06:48:04;;;;;;;5.78;1.40;;;;;;;;;;5058623;28;20020;-38
2022/06/17 06:50:31;;;;;;;2.53;1.35;;;;;;;;;;5055111;28;20032;-39
2022/06/17 06:52:56;;;;;;;2.95;1.48;;;;;;;;;;5062989;28;20017;-40
2022/06/17 06:55:21;;;;;;;4.75;1.88;;;;;;;;;;5065068;28;20104;-38
2022/06/17 06:57:49;;;;;;;2.95;1.13;;;;;;;;;;5054345;28;20020;-39
2022/06/17 07:00:16;;;;;;;5.43;1.40;;;;;;;;;;5061486;28;20020;-38
2022/06/17 07:02:42;;;;;;;2.30;1.40;;;;;;;;;;5062464;28;20047;-39
2022/06/17 07:05:07;;;;;;;1.98;1.10;;;;;;;;;;5056449;28;20464;-39
2022/06/17 07:07:33;;;;;;;6.53;1.50;;;;;;;;;;5064453;28;20479;-38
2022/06/17 07:09:58;;;;;;;1.10;1.00;;;;;;;;;;5055007;28;20032;-37
2022/06/17 07:12:23;;;;;;;2.08;1.25;;;;;;;;;;5057889;28;20021;-39
2022/06/17 07:14:49;;;;;;;3.03;1.17;;;;;;;;;;5052096;28;20153;-38
2022/06/17 07:17:14;;;;;;;2.15;1.10;;;;;;;;;;5069256;28;20074;-36
2022/06/17 07:19:39;;;;;;;5.35;1.50;;;;;;;;;;5066888;28;20056;-43
2022/06/17 07:22:05;;;;;;;2.50;1.30;;;;;;;;;;5056661;28;20158;-37
2022/06/17 07:24:30;;;;;;;3.70;1.30;;;;;;;;;;5064043;28;20021;-36
2022/06/17 07:26:56;;;;;;;6.28;1.50;;;;;;;;;;5059279;28;20044;-36
2022/06/17 07:29:21;;;;;;;3.03;1.42;;;;;;;;;;5051713;28;20016;-36
2022/06/17 07:31:46;;;;;;;6.15;1.67;;;;;;;;;;5061728;28;20070;-39
2022/06/17 07:34:11;;;;;;;16.80;2.03;;;;;;;;;;5070039;28;20123;-35
2022/06/17 07:42:05;;;;;;;2.42;1.40;;;;;;;;;;5055279;28;20976;-35
2022/06/17 07:44:30;;;;;;;2.75;1.50;;;;;;;;;;5058609;28;20033;-36
2022/06/17 07:46:56;;;;;;;2.33;1.20;;;;;;;;;;5068931;28;20024;-35
2022/06/17 07:49:21;;;;;;;4.40;1.38;;;;;;;;;;5054673;28;20056;-37
2022/06/17 07:51:46;;;;;;;1.75;1.20;;;;;;;;;;5053021;28;20025;-36
2022/06/17 07:54:12;;;;;;;1.73;1.17;;;;;;;;;;5053503;28;20017;-35
2022/06/17 07:56:38;;;;;;;1.85;1.20;;;;;;;;;;5051675;28;20013;-36
2022/06/17 07:59:03;;;;;;;1.95;1.17;;;;;;;;;;5053279;28;20051;-36
2022/06/17 08:01:29;;;;;;;1.55;0.90;;;;;;;;;;5058249;28;20473;-42
2022/06/17 08:03:54;;;;;;;1.88;1.20;;;;;;;;;;5059811;28;20056;-36
2022/06/17 08:06:19;;;;;;;1.35;1.00;;;;;;;;;;5065018;28;20134;-39
2022/06/17 08:08:45;;;;;;;2.53;1.20;;;;;;;;;;5059615;28;20057;-37
2022/06/17 08:11:11;;;;;;;1.27;1.17;;;;;;;;;;5051974;28;20453;-36
2022/06/17 08:13:36;;;;;;;1.55;1.00;;;;;;;;;;5057860;28;20032;-37
2022/06/17 08:16:05;;;;;;;1.88;1.00;;;;;;;;;;5065808;28;20017;-37
2022/06/17 08:18:31;;;;;;;;;;;;;;;;;;5055254;28;20452;-40
2022/06/17 08:20:56;;;;;;;1.93;0.90;;;;;;;;;;5056518;28;19908;-36
2022/06/17 08:23:21;;;;;;;7.25;1.20;;;;;;;;;;5056883;28;20025;-38
2022/06/17 08:25:46;;;;;;;2.17;1.00;;;;;;;;;;5061645;28;20028;-36
2022/06/17 08:28:13;;;;;;;1.50;1.20;;;;;;;;;;5052517;28;20045;-38
2022/06/17 08:30:43;;;;;;;5.28;1.80;;;;;;;;;;5051347;28;20052;-36
2022/06/17 08:33:08;;;;;;;4.15;1.08;;;;;;;;;;5057601;28;20413;-35
2022/06/17 08:35:51;;;;;;;4.77;1.20;;;;;;;;;;5059185;28;20039;-34
2022/06/17 08:38:25;;;;;;;3.38;1.20;;;;;;;;;;5067443;28;20254;-36
2022/06/17 08:40:54;;;;;;;2.33;1.42;;;;;;;;;;5057897;28;20032;-38
2022/06/17 08:43:19;;;;;;;1.77;1.10;;;;;;;;;;5059207;28;20028;-38
2022/06/17 08:46:03;;;;;;;4.80;1.08;;;;;;;;;;5053952;28;20590;-38
2022/06/17 08:48:35;;;;;;;6.22;1.30;;;;;;;;;;5060770;28;20035;-39
2022/06/17 08:51:13;;;;;;;3.63;1.55;;;;;;;;;;5054668;28;20091;-39
2022/06/17 08:53:48;;;;;;;3.72;1.27;;;;;;;;;;5065245;28;20376;-38
2022/06/17 08:56:22;;;;;;;2.42;1.20;;;;;;;;;;5055412;28;20025;-37
2022/06/17 08:58:47;;;;;;;3.28;1.27;;;;;;;;;;5051147;28;20033;-40
2022/06/17 09:01:23;;;;;;;1.80;1.17;;;;;;;;;;5052343;28;20030;-39
2022/06/17 09:03:55;;;;;;;1.67;1.30;;;;;;;;;;5050252;28;20324;-38
2022/06/17 09:06:27;;;;;;;2.67;1.10;;;;;;;;;;5060461;28;20052;-40
2022/06/17 09:08:58;;;;;;;2.60;1.35;;;;;;;;;;5055364;28;20021;-38
2022/06/17 09:11:35;;;;;;;2.38;1.30;;;;;;;;;;5070239;28;20066;-38
2022/06/17 09:14:20;;;;;;;1.63;1.15;;;;;;;;;;5071514;28;20032;-38
2022/06/17 09:16:50;;;;;;;2.33;1.17;;;;;;;;;;5060938;28;20025;-38
2022/06/17 09:19:18;;;;;;;15.73;1.95;;;;;;;;;;5048728;28;20028;-38
2022/06/17 09:21:51;;;;;;;2.33;1.45;;;;;;;;;;5059683;28;20020;-38
2022/06/17 09:24:19;;;;;;;3.05;1.30;;;;;;;;;;5054803;28;20033;-38
2022/06/17 09:26:48;;;;;;;1.10;0.90;;;;;;;;;;5051045;28;20040;-37
2022/06/17 09:29:18;;;;;;;1.33;1.00;;;;;;;;;;5062918;28;20024;-38
2022/06/17 09:31:49;;;;;;;5.78;1.20;;;;;;;;;;5050070;28;20411;-38
2022/06/17 09:34:17;;;;;;;3.28;0.95;;;;;;;;;;5051731;28;20043;-38
2022/06/17 09:36:43;;;;;;;;;;;;;;;;;;5050300;28;20108;-38
2022/06/17 09:39:11;;;;;;;1.63;1.02;;;;;;;;;;5055368;28;20382;-38
2022/06/17 09:41:47;;;;;;;1.92;1.20;;;;;;;;;;5059517;28;20086;-39
2022/06/17 09:44:27;;;;;;;2.38;1.10;;;;;;;;;;5060919;28;21871;-38
2022/06/17 09:46:56;;;;;;;2.33;1.45;;;;;;;;;;5054644;28;20044;-42
2022/06/17 09:49:37;;;;;;;3.63;1.15;;;;;;;;;;5050162;28;20512;-38
2022/06/17 09:52:02;;;;;;;1.38;1.10;;;;;;;;;;5049706;28;20104;-38
2022/06/17 09:54:48;;;;;;;3.47;1.20;;;;;;;;;;5050732;28;20096;-38
2022/06/17 09:57:22;;;;;;;3.00;1.10;;;;;;;;;;5048866;28;20032;-37
2022/06/17 09:59:53;;;;;;;1.83;1.40;;;;;;;;;;5050019;28;20133;-37
2022/06/17 10:02:19;;;;;;;1.33;1.20;;;;;;;;;;5050585;28;20051;-37
2022/06/17 10:04:45;;;;;;;4.30;1.30;;;;;;;;;;5051201;28;20721;-38
2022/06/17 10:07:29;;;;;;;2.55;1.20;;;;;;;;;;5056436;28;20057;-37
2022/06/17 10:10:13;;;;;;;1.55;1.08;;;;;;;;;;5050211;28;20021;-38
2022/06/17 10:12:47;;;;;;;3.78;1.48;;;;;;;;;;5050237;28;20044;-37
2022/06/17 10:15:28;;;;;;;1.35;0.85;;;;;;;;;;5068667;28;20020;-37
2022/06/17 10:20:48;;;;;;;1.95;1.05;;;;;;;;;;5049874;28;20169;-37
2022/06/17 10:23:19;;;;;;;2.20;1.10;;;;;;;;;;5050567;28;20104;-42
2022/06/17 10:25:47;;;;;;;0.80;0.80;;;;;;;;;;5050385;28;20488;-38
2022/06/17 10:28:31;;;;;;;2.58;1.00;;;;;;;;;;5061709;28;20029;-37
2022/06/17 10:30:56;;;;;;;1.75;0.93;;;;;;;;;;5054976;28;20029;-36
2022/06/17 10:33:22;;;;;;;2.47;0.95;;;;;;;;;;5053821;28;20028;-38
2022/06/17 10:35:47;;;;;;;4.75;1.35;;;;;;;;;;5050715;28;20025;-37
2022/06/17 10:38:18;;;;;;;2.28;1.00;;;;;;;;;;5060061;28;20456;-36
2022/06/17 10:40:43;;;;;;;6.07;1.50;;;;;;;;;;5069729;28;20016;-41
2022/06/17 10:43:14;;;;;;;1.75;1.10;;;;;;;;;;5062977;28;20471;-37
2022/06/17 10:45:40;;;;;;;1.33;1.20;;;;;;;;;;5055469;28;20538;-38
2022/06/17 10:48:05;;;;;;;4.28;1.30;;;;;;;;;;5068158;28;20024;-40
2022/06/17 10:50:31;;;;;;;2.47;1.10;;;;;;;;;;5069643;28;20052;-38
2022/06/17 10:53:15;;;;;;;1.30;1.10;;;;;;;;;;5070550;28;20024;-37
2022/06/17 10:55:47;;;;;;;2.35;1.08;;;;;;;;;;5070185;28;20021;-37
2022/06/17 10:58:23;;;;;;;0.90;0.90;;;;;;;;;;5070785;28;20097;-38
2022/06/17 11:00:53;;;;;;;2.05;1.05;;;;;;;;;;5067781;28;20028;-41
2022/06/17 11:03:22;;;;;;;1.23;0.93;;;;;;;;;;5068892;28;20024;-38
2022/06/17 11:05:47;;;;;;;;;;;;;;;;;;5053114;28;20146;-39
2022/06/17 11:08:20;;;;;;;1.58;1.00;;;;;;;;;;5059825;28;19951;-38
2022/06/17 11:10:50;;;;;;;1.77;1.00;;;;;;;;;;5063978;28;20031;-40
2022/06/17 11:13:15;;;;;;;4.70;1.27;;;;;;;;;;5055149;28;20029;-37
2022/06/17 11:15:56;;;;;;;2.67;1.10;;;;;;;;;;5071390;28;20099;-40
2022/06/17 11:18:29;;;;;;;1.58;1.27;;;;;;;;;;5064485;28;20025;-38
2022/06/17 11:21:00;;;;;;;3.00;1.40;;;;;;;;;;5063776;28;20033;-39
2022/06/17 11:23:28;;;;;;;2.90;1.10;;;;;;;;;;5053179;28;20051;-39
2022/06/17 11:26:09;;;;;;;1.10;1.00;;;;;;;;;;5065112;28;20025;-41
2022/06/17 11:28:35;;;;;;;2.38;0.90;;;;;;;;;;5061520;28;20259;-38
2022/06/17 11:31:03;;;;;;;2.95;1.15;;;;;;;;;;5067744;28;20489;-39
2022/06/17 11:33:30;;;;;;;1.60;1.10;;;;;;;;;;5064748;28;20059;-39
2022/06/17 11:35:58;;;;;;;1.88;1.10;;;;;;;;;;5055142;28;20021;-39
2022/06/17 11:38:24;;;;;;;2.97;1.40;;;;;;;;;;5059471;28;20047;-38
2022/06/17 11:40:51;;;;;;;3.92;1.30;;;;;;;;;;5066788;28;20033;-38
2022/06/17 11:43:36;;;;;;;3.10;1.00;;;;;;;;;;5065249;28;20021;-38
2022/06/17 11:46:06;;;;;;;6.75;1.48;;;;;;;;;;5071397;28;20040;-39
2022/06/17 11:48:31;;;;;;;5.53;1.73;;;;;;;;;;5051004;28;20655;-39
2022/06/17 11:51:03;;;;;;;2.85;1.70;;;;;;;;;;5056034;28;20016;-38
2022/06/17 11:53:29;;;;;;;3.80;1.48;;;;;;;;;;5080330;28;20035;-38
2022/06/17 11:55:54;;;;;;;4.82;1.55;;;;;;;;;;5084520;28;20043;-39
2022/06/17 11:58:20;;;;;;;4.82;1.40;;;;;;;;;;5073429;28;20032;-39
2022/06/17 12:00:51;;;;;;;3.47;1.57;;;;;;;;;;5070925;28;20062;-40
2022/06/17 12:03:21;;;;;;;7.03;1.52;;;;;;;;;;5057072;28;20281;-38
2022/06/17 12:06:15;;;;;;;7.65;1.58;;;;;;;;;;5058772;28;20669;-39
2022/06/17 12:08:46;;;;;;;4.63;1.08;;;;;;;;;;5055403;28;20506;-38
2022/06/17 12:11:14;;;;;;;3.80;1.20;;;;;;;;;;5059038;28;20494;-39
2022/06/17 12:13:43;;;;;;;6.37;1.70;;;;;;;;;;5056949;28;20071;-41
2022/06/17 12:16:11;;;;;;;5.53;2.75;;;;;;;;;;5062044;28;20033;-42
2022/06/17 12:18:38;;;;;;;2.03;1.35;;;;;;;;;;5057595;28;20033;-39
2022/06/17 12:21:10;;;;;;;1.67;1.10;;;;;;;;;;5053035;28;20035;-39
2022/06/17 12:23:44;;;;;;;1.17;1.08;;;;;;;;;;5058819;28;20033;-38
2022/06/17 12:26:15;;;;;;;2.35;1.40;;;;;;;;;;5057007;28;20110;-38
2022/06/17 12:28:41;;;;;;;1.40;1.10;;;;;;;;;;5060190;28;20052;-38
2022/06/17 12:31:25;;;;;;;1.88;1.10;;;;;;;;;;5051166;28;20629;-38
2022/06/17 12:34:03;;;;;;;3.28;1.00;;;;;;;;;;5058864;28;20032;-38
2022/06/17 12:36:32;;;;;;;3.07;0.90;;;;;;;;;;5069043;28;20029;-38
2022/06/17 12:39:11;;;;;;;1.90;1.20;;;;;;;;;;5058409;28;20048;-37
2022/06/17 12:41:39;;;;;;;1.67;1.08;;;;;;;;;;5066945;28;20036;-39
2022/06/17 12:44:05;;;;;;;9.25;1.88;;;;;;;;;;5063987;28;20032;-37
2022/06/17 12:46:43;;;;;;;12.15;2.60;;;;;;;;;;5066636;28;20059;-38
2022/06/17 12:55:06;;;;;;;5.97;2.28;;;;;;;;;;5062084;28;20078;-37
2022/06/17 12:57:36;;;;;;;4.97;2.60;;;;;;;;;;5052135;28;20793;-37
2022/06/17 13:00:07;;;;;;;6.03;3.05;;;;;;;;;;5061773;28;20024;-38
2022/06/17 13:02:44;;;;;;;7.47;3.17;;;;;;;;;;5051563;28;20025;-37
2022/06/17 13:05:15;;;;;;;7.00;3.97;;;;;;;;;;5057266;28;20029;-37
2022/06/17 13:07:43;;;;;;;6.05;3.15;;;;;;;;;;5052935;28;20090;-36
2022/06/17 13:13:30;;;;;;;7.25;3.20;;;;;;;;;;5066390;28;20056;-37
2022/06/17 13:15:55;;;;;;;4.72;2.75;;;;;;;;;;5073016;28;20020;-37
2022/06/17 13:18:28;;;;;;;7.70;2.40;;;;;;;;;;5068459;28;20574;-40
2022/06/17 13:21:03;;;;;;;3.08;2.10;;;;;;;;;;5059355;28;20016;-38
2022/06/17 13:23:28;;;;;;;4.72;2.20;;;;;;;;;;5066110;28;20122;-37
2022/06/17 13:26:00;;;;;;;2.33;1.88;;;;;;;;;;5054155;28;22469;-39
2022/06/17 13:28:45;;;;;;;7.03;2.13;;;;;;;;;;5070491;28;20024;-38
2022/06/17 13:31:33;;;;;;;3.70;2.22;;;;;;;;;;5061906;28;20036;-37
2022/06/17 13:34:03;;;;;;;4.45;1.85;;;;;;;;;;5051801;28;20043;-36
2022/06/17 13:36:46;;;;;;;2.05;1.83;;;;;;;;;;5053739;28;20027;-38
2022/06/17 13:39:16;;;;;;;7.43;2.42;;;;;;;;;;5059162;28;20039;-37
2022/06/17 13:41:46;;;;;;;5.00;2.00;;;;;;;;;;5051557;28;20025;-36
2022/06/17 13:44:14;;;;;;;3.40;2.45;;;;;;;;;;5050206;28;20389;-37
2022/06/17 13:46:51;;;;;;;5.17;2.30;;;;;;;;;;5050188;28;20029;-37
2022/06/17 13:49:23;;;;;;;5.07;2.28;;;;;;;;;;5051371;28;20016;-38
2022/06/17 13:51:51;;;;;;;2.78;2.10;;;;;;;;;;5051877;28;20017;-38
2022/06/17 13:54:35;;;;;;;2.93;2.27;;;;;;;;;;5051780;28;20025;-36
2022/06/17 13:57:15;;;;;;;5.18;2.00;;;;;;;;;;5051729;28;20040;-37
2022/06/17 13:59:40;;;;;;;3.95;2.08;;;;;;;;;;5052139;28;20528;-37
2022/06/17 14:02:19;;;;;;;4.35;1.63;;;;;;;;;;5051581;28;20121;-37
2022/06/17 14:05:03;;;;;;;2.43;1.70;;;;;;;;;;5051610;28;20506;-37
2022/06/17 14:07:47;;;;;;;4.13;1.20;;;;;;;;;;5052097;28;20084;-37
2022/06/17 14:10:29;;;;;;;4.40;1.63;;;;;;;;;;5051499;28;20048;-37
2022/06/17 14:12:55;;;;;;;5.38;1.77;;;;;;;;;;5051404;28;20546;-37
2022/06/17 14:15:27;;;;;;;5.57;1.88;;;;;;;;;;5051224;28;20024;-37
2022/06/17 14:17:55;;;;;;;1.90;1.75;;;;;;;;;;5050240;28;20025;-39
2022/06/17 14:20:30;;;;;;;4.13;1.92;;;;;;;;;;5051711;28;20021;-39
2022/06/17 14:23:05;;;;;;;6.72;2.10;;;;;;;;;;5051677;28;20033;-37
2022/06/17 14:25:50;;;;;;;6.03;1.98;;;;;;;;;;5051077;28;20548;-37
2022/06/17 14:28:39;;;;;;;2.83;1.90;;;;;;;;;;5051321;28;20048;-37
2022/06/17 14:31:15;;;;;;;2.17;1.98;;;;;;;;;;5049890;28;20523;-37
2022/06/17 14:33:57;;;;;;;3.75;2.10;;;;;;;;;;5050612;28;20063;-41
2022/06/17 14:36:41;;;;;;;3.58;1.77;;;;;;;;;;5051320;28;20032;-37
2022/06/17 14:39:11;;;;;;;9.98;1.98;;;;;;;;;;5069624;28;20031;-39
2022/06/17 14:44:49;;;;;;;4.27;2.20;;;;;;;;;;5075649;28;20027;-38
2022/06/17 14:47:21;;;;;;;10.25;2.55;;;;;;;;;;5074482;28;20775;-37
2022/06/17 14:49:55;;;;;;;11.60;2.42;;;;;;;;;;5075015;28;20024;-38
2022/06/17 14:52:23;;;;;;;5.88;2.30;;;;;;;;;;5075312;28;20032;-37
2022/06/17 14:54:59;;;;;;;7.87;2.47;;;;;;;;;;5075045;28;20442;-37
2022/06/17 14:57:25;;;;;;;2.78;1.80;;;;;;;;;;5075537;28;20038;-37
2022/06/17 14:59:59;;;;;;;5.00;1.80;;;;;;;;;;5075424;28;20058;-38
2022/06/17 15:02:37;;;;;;;5.78;2.00;;;;;;;;;;5074754;28;20445;-37
2022/06/17 15:05:03;;;;;;;3.78;1.98;;;;;;;;;;5074747;28;20028;-37
2022/06/17 15:07:40;;;;;;;8.82;1.80;;;;;;;;;;5074753;28;20038;-37
2022/06/17 15:10:17;;;;;;;5.07;1.88;;;;;;;;;;5075106;28;20025;-37
2022/06/17 15:12:47;;;;;;;6.10;2.03;;;;;;;;;;5074716;28;20468;-37
2022/06/17 15:15:12;;;;;;;4.70;1.98;;;;;;;;;;5074111;28;20107;-37
2022/06/17 15:17:41;;;;;;;5.07;1.77;;;;;;;;;;5074551;28;20482;-38
2022/06/17 15:20:15;;;;;;;4.95;2.05;;;;;;;;;;5074824;28;20047;-37
2022/06/17 15:23:00;;;;;;;3.25;1.95;;;;;;;;;;5074831;28;20484;-37